tititudorancea.com
Station Historical Data
Daily Summary for January 25, 2018 Units:  Metric    English   Both
« Previous Day
Next Day »
Daily Weekly Monthly Yearly Custom
  High: Low: Average:
Temperature: -17.8 °C 13 °C 23.3 °C
Dew Point: -17.8 °C 9.7 °C 12.7 °C
Humidity: Humidity % 21 % 58 %
Wind Speed: 0 km/h 0 km/h 9.3 km/h
Wind Gust: 0 km/h - -
Wind:- - SW
Pressure: 0 hPa 1002.6 hPa -
Precipitation: 0 mm    
Historical Graphs
 
 
Ararat weather Find more about Weather in Ararat, AU


 



 


Tabular Data for January 25, 2018
Time Temperature Dew Point Pressure Wind Wind Speed Wind Gust Humidity Rainfall Rate (Hourly)
-17.8 °C -17.8 °C 0 hPa Calm     Humidity % 0 mm
00:01 16.3 °C 11.2 °C 1008 hPa SSW 6.1 km/h 16.7 km/h 72 % 0 mm
00:06 16.2 °C 11.2 °C 1008 hPa SSW 6.6 km/h 8 km/h 72 % 0 mm
00:11 15.9 °C 10.8 °C 1008 hPa SSW 9.2 km/h 12.9 km/h 72 % 0 mm
00:21 15.6 °C 10.9 °C 1007.7 hPa SSW 9.3 km/h 11.1 km/h 74 % 0 mm
00:26 15.4 °C 11.1 °C 1007.7 hPa SSW 7.4 km/h 9.7 km/h 75 % 0 mm
00:31 15.4 °C 11.1 °C 1007.7 hPa North 10 km/h 13 km/h 75 % 0 mm
00:36 15.3 °C 11.1 °C 1007.7 hPa SSW 11.4 km/h 14.8 km/h 76 % 0 mm
00:41 15.2 °C 11 °C 1007.7 hPa North 9.5 km/h 13 km/h 76 % 0 mm
00:46 15.2 °C 11.2 °C 1007.7 hPa SSW 9.7 km/h 14.8 km/h 77 % 0 mm
00:56 15.4 °C 11.4 °C 1007.7 hPa SSW 6.8 km/h 11.1 km/h 77 % 0 mm
01:01 15.4 °C 11.4 °C 1007.7 hPa SSW 12.1 km/h 16.7 km/h 77 % 0 mm
01:06 15.3 °C 11.3 °C 1007.7 hPa North 11.4 km/h 14.8 km/h 77 % 0 mm
01:11 15.1 °C 11.3 °C 1007.7 hPa SSW 14.3 km/h 18.5 km/h 78 % 0 mm
01:16 15.1 °C 11.4 °C 1007.7 hPa SSW 11.6 km/h 14.8 km/h 79 % 0 mm
01:21 15 °C 11.4 °C 1007.3 hPa SSW 13.2 km/h 20.4 km/h 79 % 0 mm
01:26 14.9 °C 11.5 °C 1007.3 hPa South 12.7 km/h 18.5 km/h 80 % 0 mm
01:31 14.9 °C 11.4 °C 1007.3 hPa South 13 km/h 18.5 km/h 80 % 0 mm
01:36 14.8 °C 11.6 °C 1007.3 hPa South 9 km/h 16.7 km/h 81 % 0 mm
01:41 14.7 °C 11.4 °C 1007 hPa SSW 13.8 km/h 18.5 km/h 81 % 0 mm
01:46 14.6 °C 11.5 °C 1007 hPa SSW 13.5 km/h 22.2 km/h 82 % 0 mm
01:51 14.5 °C 11.4 °C 1007 hPa South 8.7 km/h 13 km/h 82 % 0 mm
01:56 14.4 °C 11.6 °C 1007 hPa SSW 9.8 km/h 16.7 km/h 83 % 0 mm
02:01 14.3 °C 11.5 °C 1007 hPa South 9.2 km/h 16.7 km/h 83 % 0 mm
02:06 14.3 °C 11.6 °C 1007 hPa South 8.2 km/h 14.8 km/h 84 % 0 mm
02:11 14.2 °C 11.5 °C 1007 hPa North 9.8 km/h 20.4 km/h 84 % 0 mm
02:16 14.1 °C 11.6 °C 1007 hPa North 13 km/h 20.4 km/h 85 % 0 mm
02:21 14 °C 11.5 °C 1007 hPa South 9.2 km/h 18.5 km/h 85 % 0 mm
02:26 13.9 °C 11.6 °C 1007 hPa North 11.4 km/h 16.7 km/h 86 % 0 mm
02:31 13.8 °C 11.6 °C 1007.3 hPa SSW 9.5 km/h 18.5 km/h 86 % 0 mm
02:36 13.7 °C 11.6 °C 1007.3 hPa SSW 10 km/h 13 km/h 87 % 0 mm
02:41 13.6 °C 11.5 °C 1007.3 hPa North 11.3 km/h 16.7 km/h 87 % 0 mm
02:56 13.5 °C 11.6 °C 1007 hPa North 12.7 km/h 20.4 km/h 88 % 0 mm
03:01 13.4 °C 11.7 °C 1007 hPa South 9.7 km/h 13 km/h 89 % 0 mm
03:06 13.4 °C 11.6 °C 1006.7 hPa South 9 km/h 16.1 km/h 89 % 0 mm
03:11 13.3 °C 11.5 °C 1006.7 hPa North 11.1 km/h 16.7 km/h 89 % 0 mm
03:16 13.3 °C 11.7 °C 1006.7 hPa SSW 8.5 km/h 14.8 km/h 90 % 0 mm
03:21 13.2 °C 11.6 °C 1006.7 hPa South 7.7 km/h 9.3 km/h 90 % 0 mm
03:26 13.2 °C 11.6 °C 1006.7 hPa North 10.1 km/h 18.5 km/h 90 % 0 mm
03:31 13.2 °C 11.6 °C 1006.7 hPa South 7.2 km/h 11.1 km/h 90 % 0 mm
03:36 13.2 °C 11.8 °C 1006.7 hPa SSW 8.7 km/h 13 km/h 91 % 0 mm
03:41 13.2 °C 11.8 °C 1006.7 hPa South 6.1 km/h 11.3 km/h 91 % 0 mm
03:46 13.1 °C 11.7 °C 1007 hPa SSW 8.5 km/h 11.1 km/h 91 % 0 mm
03:51 13.1 °C 11.6 °C 1006.7 hPa SSW 7.4 km/h 14.8 km/h 91 % 0 mm
03:56 13.1 °C 11.7 °C 1006.7 hPa SSW 8.4 km/h 13 km/h 91 % 0 mm
04:01 13.1 °C 11.7 °C 1006.7 hPa SSW 9 km/h 11.1 km/h 91 % 0 mm
04:06 13.1 °C 11.7 °C 1006.7 hPa North 12.7 km/h 14.8 km/h 91 % 0 mm
04:11 13.1 °C 11.8 °C 1006.7 hPa North 10.3 km/h 16.7 km/h 92 % 0 mm
04:16 13.1 °C 11.8 °C 1006.7 hPa North 8.4 km/h 13 km/h 92 % 0 mm
04:26 13 °C 11.7 °C 1006.7 hPa SSW 7.9 km/h 16.7 km/h 92 % 0 mm
04:31 13.1 °C 11.8 °C 1006.7 hPa North 10.9 km/h 16.7 km/h 92 % 0 mm
04:36 13.2 °C 11.9 °C 1006.7 hPa South 9 km/h 16.7 km/h 92 % 0 mm
04:41 13.2 °C 11.9 °C 1006.7 hPa North 9.5 km/h 13 km/h 92 % 0 mm
04:46 13.1 °C 11.8 °C 1006.7 hPa SSW 7.6 km/h 9.3 km/h 92 % 0 mm
04:51 13.1 °C 11.8 °C 1006.7 hPa North 7.2 km/h 11.1 km/h 92 % 0 mm
04:52 13.1 °C 11.8 °C 1007 hPa North 8.7 km/h 11.3 km/h 92 % 0 mm
05:02 13.2 °C 12.1 °C 1006.7 hPa SSW 10.1 km/h 13 km/h 93 % 0 mm
05:07 13.2 °C 12.1 °C 1006.7 hPa SSW 4.2 km/h 7.4 km/h 93 % 0 mm
05:12 13.2 °C 12.1 °C 1006.7 hPa SSW 6.6 km/h 11.1 km/h 93 % 0 mm
05:17 13.2 °C 12.1 °C 1007 hPa SSW 5.5 km/h 11.1 km/h 93 % 0 mm
05:22 13.2 °C 12.1 °C 1007 hPa North 6.6 km/h 9.7 km/h 93 % 0 mm
05:27 13.2 °C 12.1 °C 1007 hPa SSW 9 km/h 13 km/h 93 % 0 mm
05:32 13.2 °C 12.1 °C 1007 hPa North 9.3 km/h 13 km/h 93 % 0 mm
05:37 13.2 °C 12.1 °C 1007 hPa SSW 6.1 km/h 7.4 km/h 93 % 0 mm
05:42 13.2 °C 12.1 °C 1007 hPa SSW 5.3 km/h 8 km/h 93 % 0 mm
05:47 13.2 °C 12.1 °C 1007 hPa SSW 7.6 km/h 8 km/h 93 % 0 mm
05:52 13.2 °C 12.1 °C 1007 hPa SSW 10.1 km/h 14.8 km/h 93 % 0 mm
05:57 13.2 °C 12.1 °C 1007 hPa North 7.4 km/h 12.9 km/h 93 % 0 mm
06:02 13.1 °C 12 °C 1007 hPa North 4 km/h 7.4 km/h 93 % 0 mm
06:07 13.1 °C 12 °C 1007 hPa SSW 6.3 km/h 9.3 km/h 93 % 0 mm
06:12 13.1 °C 12 °C 1007 hPa North 10.5 km/h 13 km/h 93 % 0 mm
06:17 13.1 °C 12 °C 1007 hPa SSW 7.1 km/h 9.3 km/h 93 % 0 mm
06:22 13.2 °C 12.1 °C 1007 hPa SSW 8 km/h 14.8 km/h 93 % 0 mm
06:27 13.2 °C 12.1 °C 1007 hPa North 8 km/h 16.7 km/h 93 % 0 mm
06:32 13.2 °C 12.1 °C 1007 hPa SSW 6.6 km/h 11.1 km/h 93 % 0 mm
06:37 13.3 °C 12.3 °C 1007 hPa North 9 km/h 11.3 km/h 94 % 0 mm
06:47 13.3 °C 12.4 °C 1007.3 hPa SSW 6.1 km/h 11.1 km/h 94 % 0 mm
06:52 13.3 °C 12.3 °C 1007.3 hPa SSW 8.9 km/h 11.1 km/h 94 % 0 mm
06:57 13.3 °C 12.3 °C 1007.3 hPa South 7.4 km/h 11.1 km/h 94 % 0 mm
07:02 13.3 °C 12.3 °C 1007.3 hPa SSW 8 km/h 11.1 km/h 94 % 0 mm
07:07 13.2 °C 12.3 °C 1007.3 hPa North 9.5 km/h 13 km/h 94 % 0 mm
07:17 13.3 °C 12.4 °C 1007.3 hPa North 3.9 km/h 5.6 km/h 94 % 0 mm
07:22 13.4 °C 12.4 °C 1007.3 hPa South 8.4 km/h 11.1 km/h 94 % 0 mm
07:32 13.4 °C 12.7 °C 1007.3 hPa North 9.5 km/h 14.5 km/h 95 % 0 mm
07:37 13.6 °C 12.8 °C 1007.3 hPa SSW 8.7 km/h 11.1 km/h 95 % 0 mm
07:42 13.6 °C 12.8 °C 1007.3 hPa SSW 9.3 km/h 14.8 km/h 95 % 0 mm
07:47 13.8 °C 13 °C 1007.3 hPa SSW 5.1 km/h 6.4 km/h 95 % 0 mm
07:52 13.9 °C 13.1 °C 1007.7 hPa South 11.9 km/h 14.8 km/h 95 % 0 mm
07:57 14 °C 13.2 °C 1007.7 hPa SSW 4.2 km/h 5.6 km/h 95 % 0 mm
08:02 14.2 °C 13.4 °C 1007.7 hPa SSW 4 km/h 5.6 km/h 95 % 0 mm
08:07 14.3 °C 13.6 °C 1007.7 hPa SSW 3.2 km/h 5.6 km/h 95 % 0 mm
08:12 14.6 °C 13.8 °C 1007.7 hPa North 9.2 km/h 11.3 km/h 95 % 0 mm
08:17 14.6 °C 13.7 °C 1007.7 hPa North 5.6 km/h 7.4 km/h 94 % 0 mm
08:22 14.8 °C 13.8 °C 1007.7 hPa SSW 6.6 km/h 7.4 km/h 94 % 0 mm
08:27 14.9 °C 13.8 °C 1007.7 hPa North 7.6 km/h 7.6 km/h 93 % 0 mm
08:32 15.2 °C 14.1 °C 1007.7 hPa SSW 5.5 km/h 7.4 km/h 93 % 0 mm
08:37 15.5 °C 14.4 °C 1007.7 hPa SSW 6.9 km/h 7.4 km/h 93 % 0 mm
08:43 15.8 °C 14.5 °C 1007.7 hPa SSW 7.4 km/h 9.7 km/h 92 % 0 mm
08:48 16 °C 14.3 °C 1007.7 hPa SSW 3.2 km/h 5.6 km/h 90 % 0 mm
08:53 16.4 °C 14.6 °C 1007.7 hPa SSW 4.2 km/h 7.4 km/h 89 % 0 mm
08:58 16.6 °C 14.6 °C 1007.7 hPa SSW 4.7 km/h 5.6 km/h 88 % 0 mm
09:03 16.9 °C 14.6 °C 1007.7 hPa SSW 6.6 km/h 7.4 km/h 86 % 0 mm
09:08 17.3 °C 14.7 °C 1007.7 hPa SSW 6.4 km/h 9.3 km/h 85 % 0 mm
09:13 17.7 °C 14.8 °C 1007.7 hPa SSW 1.3 km/h 5.6 km/h 83 % 0 mm
09:18 18.2 °C 15.1 °C 1007.7 hPa SSW 1.4 km/h 6.4 km/h 82 % 0 mm
09:19 18.3 °C 14.9 °C 1007.7 hPa SSW 5.6 km/h 7.4 km/h 81 % 0 mm
09:24 18.8 °C 15.1 °C 1007.7 hPa SSW 3.7 km/h 5.6 km/h 79 % 0 mm
09:29 19.3 °C 15.2 °C 1007.7 hPa SSW 2.6 km/h 5.6 km/h 77 % 0 mm
09:34 20.3 °C 15.5 °C 1007.7 hPa SSW 0.5 km/h 1.9 km/h 74 % 0 mm
09:39 20.8 °C 15.4 °C 1007.7 hPa North 1.1 km/h 1.9 km/h 71 % 0 mm
09:44 21.3 °C 15.3 °C 1007.3 hPa SSW 2.6 km/h 3.7 km/h 69 % 0 mm
09:49 21.6 °C 15.4 °C 1007.3 hPa SSW 1.6 km/h 5.6 km/h 68 % 0 mm
09:54 21.7 °C 15.3 °C 1007.3 hPa SSW 0.8 km/h 3.7 km/h 67 % 0 mm
09:59 22.6 °C 15.9 °C 1007.7 hPa SSW 2.6 km/h 3.7 km/h 66 % 0 mm
10:04 23.1 °C 15.6 °C 1007.7 hPa SSW 1.8 km/h 3.7 km/h 63 % 0 mm
10:09 22.9 °C 15.3 °C 1007.3 hPa Calm     62 % 0 mm
10:14 23.4 °C 15.2 °C 1007.3 hPa SSW 3.5 km/h 5.6 km/h 60 % 0 mm
10:19 23.8 °C 15.3 °C 1007.3 hPa SSW 2.1 km/h 3.7 km/h 59 % 0 mm
10:24 24.1 °C 15 °C 1007.3 hPa SSW 3.5 km/h 6.4 km/h 57 % 0 mm
10:29 24.2 °C 14.8 °C 1007 hPa SSW 2.6 km/h 5.6 km/h 56 % 0 mm
10:34 24.5 °C 15.2 °C 1007.3 hPa SSW 2.6 km/h 6.4 km/h 56 % 0 mm
10:39 24.8 °C 14.9 °C 1007.3 hPa SSW 3.7 km/h 5.6 km/h 54 % 0 mm
10:44 25 °C 14.8 °C 1007 hPa South 0.8 km/h 3.7 km/h 53 % 0 mm
10:49 25.3 °C 14.7 °C 1007 hPa SSW 1.9 km/h 5.6 km/h 52 % 0 mm
10:54 25.4 °C 14.9 °C 1007 hPa SSW 3.9 km/h 5.6 km/h 52 % 0 mm
10:59 25.5 °C 14.6 °C 1007 hPa SSW 3.5 km/h 5.6 km/h 51 % 0 mm
11:04 25.7 °C 14.8 °C 1007 hPa SSW 1.9 km/h 3.7 km/h 51 % 0 mm
11:09 26.1 °C 15.1 °C 1007 hPa SSW 0.3 km/h 3.7 km/h 51 % 0 mm
11:14 26.9 °C 15 °C 1007 hPa SSW 2.6 km/h 5.6 km/h 48 % 0 mm
11:19 27.1 °C 14.8 °C 1007 hPa SSW 0.5 km/h 3.7 km/h 47 % 0 mm
11:24 27.3 °C 14.7 °C 1007 hPa SSW 5.6 km/h 7.4 km/h 46 % 0 mm
11:29 27.3 °C 14.7 °C 1006.7 hPa SSW 2.9 km/h 5.6 km/h 46 % 0 mm
11:34 27.6 °C 14.9 °C 1006.7 hPa SSW 5.6 km/h 5.6 km/h 46 % 0 mm
11:39 28.2 °C 15.2 °C 1006.7 hPa North 0.6 km/h 3.7 km/h 45 % 0 mm
11:44 28.7 °C 14.9 °C 1006.7 hPa SSW 1.9 km/h 5.6 km/h 43 % 0 mm
11:49 29 °C 15.2 °C 1006.3 hPa SSW 3.4 km/h 5.6 km/h 43 % 0 mm
11:54 29.4 °C 15.1 °C 1006.3 hPa Calm     42 % 0 mm
11:59 29.5 °C 14.5 °C 1006.3 hPa SSW 2.3 km/h 5.6 km/h 40 % 0 mm
12:04 29.6 °C 14.9 °C 1006.3 hPa WSW 12.1 km/h 13 km/h 41 % 0 mm
12:09 29.4 °C 14.8 °C 1006.3 hPa WSW 6 km/h 9.3 km/h 41 % 0 mm
12:14 29.7 °C 14.6 °C 1006.3 hPa WSW 5 km/h 7.4 km/h 40 % 0 mm
12:19 30.2 °C 14.7 °C 1006.3 hPa North 6.8 km/h 11.1 km/h 39 % 0 mm
12:24 30.3 °C 14.4 °C 1006.3 hPa WSW 1.3 km/h 5.6 km/h 38 % 0 mm
12:29 30.2 °C 14.3 °C 1006 hPa WSW 3.4 km/h 5.6 km/h 38 % 0 mm
12:34 30.4 °C 14.5 °C 1006 hPa WSW 2.9 km/h 5.6 km/h 38 % 0 mm
12:39 31 °C 13.3 °C 1006 hPa WSW 6.8 km/h 7.4 km/h 34 % 0 mm
12:44 31.5 °C 12.8 °C 1006 hPa WNW 6 km/h 9.3 km/h 32 % 0 mm
12:49 31.7 °C 12.5 °C 1005.6 hPa NW 9.8 km/h 18.5 km/h 31 % 0 mm
12:54 31.8 °C 12.6 °C 1005.6 hPa NW 8.7 km/h 11.1 km/h 31 % 0 mm
12:59 31.8 °C 12.6 °C 1006 hPa North 5.5 km/h 13 km/h 31 % 0 mm
13:04 31.9 °C 12.7 °C 1005.6 hPa NW 6.8 km/h 9.3 km/h 31 % 0 mm
13:09 32.2 °C 12.9 °C 1005.6 hPa NW 5 km/h 7.4 km/h 31 % 0 mm
13:14 32.4 °C 12.6 °C 1005.6 hPa North 6.9 km/h 9.3 km/h 30 % 0 mm
13:19 32.4 °C 13.1 °C 1005.6 hPa NNW 9.8 km/h 11.1 km/h 31 % 0 mm
13:24 32.4 °C 13.6 °C 1005.6 hPa North 4.3 km/h 5.6 km/h 32 % 0 mm
13:29 32.6 °C 13.3 °C 1005.6 hPa NNW 9.5 km/h 16.7 km/h 31 % 0 mm
13:34 32.7 °C 12.8 °C 1005.6 hPa North 6.3 km/h 9.3 km/h 30 % 0 mm
13:39 32.7 °C 13.4 °C 1005.3 hPa North 12.6 km/h 18.5 km/h 31 % 0 mm
13:44 32.9 °C 13.5 °C 1005.3 hPa North 7.6 km/h 9.3 km/h 31 % 0 mm
13:49 33.2 °C 13.8 °C 1005.3 hPa North 5.1 km/h 7.4 km/h 31 % 0 mm
13:54 33.4 °C 13.5 °C 1005.3 hPa NW 11.1 km/h 17.7 km/h 30 % 0 mm
13:59 33.5 °C 14.1 °C 1005.3 hPa WNW 8 km/h 13 km/h 31 % 0 mm
14:04 33.8 °C 13.3 °C 1005.3 hPa WNW 11.3 km/h 16.7 km/h 29 % 0 mm
14:09 33.3 °C 13.4 °C 1005 hPa NW 5 km/h 16.7 km/h 30 % 0 mm
14:14 33.4 °C 14 °C 1005 hPa WNW 10.8 km/h 11.1 km/h 31 % 0 mm
14:19 33.8 °C 13.8 °C 1005 hPa North 10.6 km/h 22.2 km/h 30 % 0 mm
14:24 34.2 °C 14.1 °C 1005 hPa NNE 9.3 km/h 13 km/h 30 % 0 mm
14:29 34.2 °C 14.1 °C 1005 hPa ENE 4.7 km/h 7.4 km/h 30 % 0 mm
14:34 34.2 °C 13.7 °C 1005 hPa ENE 2.7 km/h 6.4 km/h 29 % 0 mm
14:39 34.1 °C 13.6 °C 1005 hPa North 8.4 km/h 18.5 km/h 29 % 0 mm
14:44 33.9 °C 13.9 °C 1004.6 hPa NW 8.9 km/h 13 km/h 30 % 0 mm
14:49 33.8 °C 14.3 °C 1004.6 hPa NW 3.1 km/h 4.8 km/h 31 % 0 mm
14:54 34.2 °C 14.1 °C 1004.6 hPa NW 4.2 km/h 5.6 km/h 30 % 0 mm
14:59 34.9 °C 14.2 °C 1004.6 hPa NNW 13.4 km/h 16.7 km/h 29 % 0 mm
15:04 34.5 °C 14.4 °C 1004.6 hPa NNW 1.4 km/h 7.4 km/h 30 % 0 mm
15:09 34.9 °C 13.7 °C 1004.6 hPa North 10.5 km/h 14.8 km/h 28 % 0 mm
15:14 34.8 °C 14.1 °C 1004.6 hPa North 10.1 km/h 14.5 km/h 29 % 0 mm
15:19 34.3 °C 13.7 °C 1004.6 hPa NNE 4.2 km/h 7.4 km/h 29 % 0 mm
15:24 34.5 °C 14.4 °C 1004.3 hPa NNE 1 km/h 5.6 km/h 30 % 0 mm
15:29 34.8 °C 13.6 °C 1004.3 hPa NNE 3.4 km/h 7.4 km/h 28 % 0 mm
15:34 34.7 °C 13.5 °C 1004.3 hPa NNW 8.4 km/h 9.3 km/h 28 % 0 mm
15:39 34.2 °C 13.7 °C 1004.3 hPa WNW 9.8 km/h 14.8 km/h 29 % 0 mm
15:44 34.3 °C 13.7 °C 1004.3 hPa NW 8.9 km/h 11.1 km/h 29 % 0 mm
15:49 34.5 °C 13.3 °C 1003.9 hPa North 13.8 km/h 16.7 km/h 28 % 0 mm
15:54 34.2 °C 13.1 °C 1003.9 hPa WSW 6.1 km/h 11.1 km/h 28 % 0 mm
16:00 34.1 °C 13 °C 1003.9 hPa SW 9.2 km/h 14.8 km/h 28 % 0 mm
16:05 34.3 °C 13.2 °C 1003.6 hPa North 10.5 km/h 10.5 km/h 28 % 0 mm
16:10 34.8 °C 13.1 °C 1003.9 hPa WNW 13.5 km/h 22.5 km/h 27 % 0 mm
16:14 34.9 °C 12.6 °C 1003.9 hPa North 11.9 km/h 20.9 km/h 26 % 0 mm
16:20 34.3 °C 12.7 °C 1003.6 hPa North 8.5 km/h 8.5 km/h 27 % 0 mm
16:25 34.3 °C 12.6 °C 1003.6 hPa WNW 1.1 km/h 5.6 km/h 27 % 0 mm
16:30 34.8 °C 12.4 °C 1003.3 hPa WNW 2.4 km/h 7.4 km/h 26 % 0 mm
16:35 35.1 °C 12.7 °C 1003.3 hPa WSW 8.2 km/h 11.1 km/h 26 % 0 mm
16:40 35.2 °C 12.8 °C 1003.3 hPa West 8.7 km/h 11.3 km/h 26 % 0 mm
16:45 35.3 °C 12.3 °C 1003.3 hPa West 20.1 km/h 29.6 km/h 25 % 0 mm
16:50 35.5 °C 12.4 °C 1002.9 hPa West 15.4 km/h 25.9 km/h 25 % 0 mm
16:55 35.2 °C 12.2 °C 1002.9 hPa North 10.9 km/h 16.7 km/h 25 % 0 mm
17:00 35.3 °C 12.3 °C 1002.9 hPa WSW 8 km/h 14.8 km/h 25 % 0 mm
17:05 35.4 °C 11.7 °C 1002.9 hPa SW 7.6 km/h 9.3 km/h 24 % 0 mm
17:10 35.6 °C 11.9 °C 1002.6 hPa West 6.3 km/h 7.4 km/h 24 % 0 mm
17:15 35.9 °C 11.5 °C 1002.6 hPa West 14.3 km/h 18.5 km/h 23 % 0 mm
17:20 35.9 °C 10.9 °C 1002.6 hPa WNW 11.1 km/h 14.8 km/h 22 % 0 mm
17:25 35.8 °C 10.1 °C 1002.6 hPa North 3.5 km/h 5.6 km/h 21 % 0 mm
17:30 35.7 °C 10.7 °C 1002.6 hPa WSW 4.5 km/h 5.6 km/h 22 % 0 mm
17:35 35.7 °C 10.7 °C 1002.6 hPa North 6.6 km/h 9.7 km/h 22 % 0 mm
17:40 36.1 °C 10.3 °C 1002.6 hPa West 5.6 km/h 11.1 km/h 21 % 0 mm
17:45 36.1 °C 10.3 °C 1002.6 hPa SW 10 km/h 18.5 km/h 21 % 0 mm
17:50 35.4 °C 9.7 °C 1002.6 hPa SW 13.2 km/h 20.4 km/h 21 % 0 mm
17:55 34.8 °C 9.9 °C 1002.6 hPa SW 10.9 km/h 18.5 km/h 22 % 0 mm
18:00 34.7 °C 9.8 °C 1002.6 hPa South 9.5 km/h 13 km/h 22 % 0 mm
18:05 34 °C 12.4 °C 1002.6 hPa SSW 22 km/h 38.9 km/h 27 % 0 mm
18:10 33.6 °C 12.6 °C 1002.9 hPa SSE 19.3 km/h 29.6 km/h 28 % 0 mm
18:15 33.5 °C 12.5 °C 1002.9 hPa South 20.4 km/h 29.6 km/h 28 % 0 mm
18:20 33.1 °C 12.7 °C 1002.9 hPa SSE 28 km/h 37 km/h 29 % 0 mm
18:25 32.9 °C 13.1 °C 1002.9 hPa SSW 25.7 km/h 33.3 km/h 30 % 0 mm
18:30 32.7 °C 12.9 °C 1003.3 hPa SSW 29.8 km/h 42.6 km/h 30 % 0 mm
18:35 32.4 °C 13.1 °C 1003.3 hPa South 15.1 km/h 27.8 km/h 31 % 0 mm
18:40 32.4 °C 13.1 °C 1003.3 hPa South 18.7 km/h 33.3 km/h 31 % 0 mm
18:45 32.2 °C 13.4 °C 1003.6 hPa SSE 19.2 km/h 27.8 km/h 32 % 0 mm
18:50 31.9 °C 13.2 °C 1003.6 hPa SSW 19.8 km/h 31.5 km/h 32 % 0 mm
18:55 31.5 °C 13.3 °C 1003.6 hPa South 19.2 km/h 31.5 km/h 33 % 0 mm
19:00 31.3 °C 13.6 °C 1003.6 hPa South 15.3 km/h 25.9 km/h 34 % 0 mm
19:05 31.2 °C 13.5 °C 1003.9 hPa SSW 20.8 km/h 35.2 km/h 34 % 0 mm
19:10 30.9 °C 13.7 °C 1003.9 hPa South 22.7 km/h 35.2 km/h 35 % 0 mm
19:15 30.7 °C 13.9 °C 1003.9 hPa SSW 24.3 km/h 35.2 km/h 36 % 0 mm
19:20 30.6 °C 13.8 °C 1003.9 hPa SW 19.3 km/h 31.5 km/h 36 % 0 mm
19:25 30.2 °C 13.9 °C 1004.3 hPa South 17.1 km/h 27.8 km/h 37 % 0 mm
19:30 29.9 °C 14.1 °C 1004.3 hPa South 20.4 km/h 30.6 km/h 38 % 0 mm
19:35 29.6 °C 14.2 °C 1004.3 hPa SSW 16.9 km/h 29.6 km/h 39 % 0 mm
19:40 29.3 °C 13.9 °C 1004.3 hPa SSW 16.6 km/h 33.3 km/h 39 % 0 mm
19:45 28.9 °C 13.9 °C 1004.6 hPa SSW 25.6 km/h 33.8 km/h 40 % 0 mm
19:50 28.5 °C 13.9 °C 1004.6 hPa SSW 18.3 km/h 31.5 km/h 41 % 0 mm
19:55 28.2 °C 13.3 °C 1005 hPa South 25.1 km/h 42.6 km/h 40 % 0 mm
20:00 27.9 °C 13.1 °C 1005 hPa South 17.1 km/h 31.5 km/h 40 % 0 mm
20:05 27.6 °C 12.3 °C 1005.3 hPa South 26.1 km/h 38.9 km/h 39 % 0 mm
20:10 27.3 °C 11.7 °C 1005.3 hPa South 18.5 km/h 31.5 km/h 38 % 0 mm
20:15 27.1 °C 11.2 °C 1005.3 hPa SSW 16.7 km/h 29.6 km/h 37 % 0 mm
20:20 26.9 °C 10.9 °C 1005.6 hPa SSE 19 km/h 27.8 km/h 37 % 0 mm
20:25 26.7 °C 10.8 °C 1005.6 hPa SSW 22.7 km/h 31.5 km/h 37 % 0 mm
20:30 26.5 °C 11.4 °C 1005.6 hPa South 11.9 km/h 18.5 km/h 39 % 0 mm
20:35 26.2 °C 11.2 °C 1006 hPa SSW 18.8 km/h 24.1 km/h 39 % 0 mm
20:40 26 °C 11.3 °C 1006 hPa SSW 17.7 km/h 24.1 km/h 40 % 0 mm
20:45 25.8 °C 11.5 °C 1006.3 hPa South 11.6 km/h 20.4 km/h 41 % 0 mm
20:50 25.6 °C 11.7 °C 1006 hPa SSW 13 km/h 18.5 km/h 42 % 0 mm
20:55 25.4 °C 11.9 °C 1006 hPa SSW 16.9 km/h 19.3 km/h 43 % 0 mm
21:00 25.2 °C 11.7 °C 1006.3 hPa South 10.8 km/h 18.5 km/h 43 % 0 mm
21:05 25.1 °C 12 °C 1006 hPa South 13 km/h 16.7 km/h 44 % 0 mm
21:10 24.9 °C 11.8 °C 1006.3 hPa South 14.5 km/h 20.4 km/h 44 % 0 mm
21:15 24.8 °C 11.7 °C 1006.3 hPa SSW 10.8 km/h 22.2 km/h 44 % 0 mm
21:20 24.7 °C 11.7 °C 1006.3 hPa SSW 15.4 km/h 25.9 km/h 44 % 0 mm
21:25 24.6 °C 11.9 °C 1006.3 hPa South 15.3 km/h 22.2 km/h 45 % 0 mm
21:30 24.4 °C 12.1 °C 1006.3 hPa SSW 11.6 km/h 22.2 km/h 46 % 0 mm
21:35 24.3 °C 11.9 °C 1006.3 hPa South 9.2 km/h 18.5 km/h 46 % 0 mm
21:40 24.2 °C 12.2 °C 1006.7 hPa South 10.1 km/h 16.7 km/h 47 % 0 mm
21:45 24.1 °C 11.7 °C 1006.3 hPa South 11.3 km/h 16.7 km/h 46 % 0 mm
21:50 23.9 °C 11.9 °C 1006.7 hPa South 13.4 km/h 27.8 km/h 47 % 0 mm
21:55 23.7 °C 11.7 °C 1006.7 hPa South 13 km/h 18.5 km/h 47 % 0 mm
22:00 23.6 °C 11.9 °C 1007 hPa SSW 17.7 km/h 22.2 km/h 48 % 0 mm
22:05 23.4 °C 11.8 °C 1007 hPa North 12.9 km/h 18.5 km/h 48 % 0 mm
22:10 23.2 °C 11.6 °C 1007 hPa South 12.6 km/h 20.4 km/h 48 % 0 mm
22:15 23.1 °C 11.8 °C 1007 hPa SSW 15.6 km/h 18.5 km/h 49 % 0 mm
22:20 22.9 °C 11.9 °C 1007 hPa SSW 13.2 km/h 19.3 km/h 50 % 0 mm
22:25 22.7 °C 12 °C 1007 hPa SSW 14.2 km/h 18.5 km/h 51 % 0 mm
22:30 22.5 °C 12.2 °C 1007.3 hPa SSW 12.7 km/h 22.2 km/h 52 % 0 mm
22:35 22.3 °C 12.3 °C 1007.3 hPa South 6.3 km/h 12.9 km/h 53 % 0 mm
22:40 22.2 °C 12.1 °C 1007.7 hPa South 15.8 km/h 24.1 km/h 53 % 0 mm
22:45 22.1 °C 12.3 °C 1007.7 hPa South 9.8 km/h 16.7 km/h 54 % 0 mm
22:50 21.9 °C 12.4 °C 1007.7 hPa South 6.3 km/h 13 km/h 55 % 0 mm
22:55 21.7 °C 12.3 °C 1007.7 hPa SSW 11.1 km/h 16.7 km/h 55 % 0 mm
23:00 21.6 °C 12.4 °C 1007.7 hPa South 12.4 km/h 18.5 km/h 56 % 0 mm
23:05 21.4 °C 12.6 °C 1007.7 hPa SSW 14.3 km/h 20.9 km/h 57 % 0 mm
23:10 21.3 °C 12.4 °C 1007.7 hPa SSW 4 km/h 13 km/h 57 % 0 mm
23:15 21.2 °C 12.6 °C 1007.7 hPa SSW 9.2 km/h 14.8 km/h 58 % 0 mm
23:20 21 °C 12.7 °C 1007.7 hPa SSW 11.6 km/h 14.8 km/h 59 % 0 mm
23:25 20.9 °C 12.9 °C 1007.7 hPa South 8 km/h 13 km/h 60 % 0 mm
23:30 20.7 °C 12.7 °C 1007.7 hPa SSW 15.3 km/h 20.4 km/h 60 % 0 mm
23:35 20.5 °C 12.7 °C 1007.7 hPa North 12.9 km/h 22.2 km/h 61 % 0 mm
23:40 20.3 °C 13.1 °C 1007.7 hPa South 8.7 km/h 13 km/h 63 % 0 mm
23:45 20.3 °C 13.6 °C 1007.7 hPa South 8.7 km/h 16.7 km/h 65 % 0 mm
23:50 20.3 °C 13.5 °C 1007.7 hPa SSW 13.7 km/h 16.7 km/h 65 % 0 mm
23:55 20.1 °C 13.3 °C 1007.7 hPa SSW 7.4 km/h 11.1 km/h 65 % 0 mm
Ararat Weather
Compliments of Weather Underground - 2 mb
Click here to send mail.


ABOUT

Live weather data from Ararat, Victoria, Australia, 3377
Data uploaded from Cumulus every 5 minutes to Weather Underground.
This site then downloads the raw data for formatting and display.
Metric and imperial data can be displayed. Graphs and historical data available.
Includes Sun and Moon times and rain image live from BOM.

Check out Ararat Weather on Facebook, Twitter and Google +

Help support ongoing costs by checking out the ads





Follow @AraratWeather